Time;durP1;ratioP1;P1;durP2;ratioP2;P2;SDS_P1;SDS_P2;PMS_P1;PMS_P2;Temp;Humidity;BMP_temperature;BMP_pressure;BME280_temperature;BME280_humidity;BME280_pressure;Samples;Min_cycle;Max_cycle;Signal;HPM_P1;HPM_P2
2022/08/31 00:06:19;;;;;;;12.95;8.43;;;;;;;19.66;91.44;98565.56;5087399;28;20097;-69
2022/08/31 00:08:44;;;;;;;18.58;8.60;;;;;;;19.70;91.18;98560.91;5079047;28;20028;-69
2022/08/31 00:11:13;;;;;;;20.58;9.88;;;;;;;19.63;91.56;98565.75;5087408;28;20070;-69
2022/08/31 00:13:42;;;;;;;14.45;8.75;;;;;;;19.59;91.77;98569.56;5087218;28;20055;-69
2022/08/31 00:16:10;;;;;;;13.48;9.52;;;;;;;19.59;91.63;98561.53;5087306;28;20032;-69
2022/08/31 00:18:36;;;;;;;16.55;8.13;;;;;;;19.64;91.12;98561.28;5087131;28;20028;-69
2022/08/31 00:21:02;;;;;;;12.88;9.07;;;;;;;19.63;91.16;98560.41;5087212;28;20070;-69
2022/08/31 00:23:27;;;;;;;22.05;8.63;;;;;;;19.61;91.20;98551.63;5087016;28;20031;-69
2022/08/31 00:25:52;;;;;;;14.07;8.52;;;;;;;19.61;90.94;98556.94;5086888;28;20024;-69
2022/08/31 00:28:18;;;;;;;14.80;8.68;;;;;;;19.64;90.84;98553.28;5086909;28;20020;-69
2022/08/31 00:30:45;;;;;;;15.98;8.07;;;;;;;19.74;90.41;98547.28;5086932;28;20032;-69
2022/08/31 00:33:11;;;;;;;14.85;8.20;;;;;;;19.73;90.04;98545.59;5086784;28;20035;-69
2022/08/31 00:35:40;;;;;;;14.23;7.47;;;;;;;19.64;90.04;98546.09;5087044;28;20040;-69
2022/08/31 00:38:06;;;;;;;12.07;7.05;;;;;;;19.61;90.33;98540.94;5087140;28;20066;-69
2022/08/31 00:40:32;;;;;;;14.73;8.30;;;;;;;19.65;89.80;98553.16;5087092;28;20358;-69
2022/08/31 00:43:00;;;;;;;12.05;7.15;;;;;;;19.79;89.31;98561.25;5087067;28;20025;-69
2022/08/31 00:45:26;;;;;;;10.35;6.97;;;;;;;19.72;89.24;98559.91;5086622;28;20024;-69
2022/08/31 00:47:52;;;;;;;13.02;7.30;;;;;;;19.67;89.42;98561.06;5086618;28;20035;-69
2022/08/31 00:50:19;;;;;;;12.82;7.60;;;;;;;19.66;89.74;98562.91;5086717;28;20098;-69
2022/08/31 00:52:52;;;;;;;12.07;7.40;;;;;;;19.69;89.84;98567.22;5086534;28;20216;-69
2022/08/31 00:55:30;;;;;;;10.23;6.78;;;;;;;19.60;90.54;98568.59;5085470;28;20320;-69
2022/08/31 00:57:59;;;;;;;12.18;7.53;;;;;;;19.61;90.45;98572.13;5086409;28;20030;-69
2022/08/31 01:00:27;;;;;;;13.18;7.18;;;;;;;19.62;89.85;98572.03;5086637;28;20224;-69
2022/08/31 01:02:54;;;;;;;14.13;7.45;;;;;;;19.63;90.96;98581.78;5086463;28;20016;-68
2022/08/31 01:05:20;;;;;;;12.10;7.32;;;;;;;19.60;91.25;98576.59;5086247;28;20039;-68
2022/08/31 01:07:47;;;;;;;10.82;6.53;;;;;;;19.64;90.44;98572.81;5086380;28;20020;-68
2022/08/31 01:10:15;;;;;;;12.48;7.20;;;;;;;19.67;90.88;98577.09;5085886;28;20040;-68
2022/08/31 01:12:43;;;;;;;11.32;7.40;;;;;;;19.66;90.46;98584.28;5086204;28;20081;-68
2022/08/31 01:15:10;;;;;;;12.23;6.82;;;;;;;19.62;91.53;98582.72;5086095;28;20046;-68
2022/08/31 01:17:37;;;;;;;18.75;7.80;;;;;;;19.53;92.62;98585.91;5086193;28;20020;-68
2022/08/31 01:20:15;;;;;;;16.08;7.70;;;;;;;19.52;92.55;98600.19;5086141;28;20216;-68
2022/08/31 01:23:09;;;;;;;13.88;7.80;;;;;;;19.53;92.29;98601.94;5086111;28;20319;-68
2022/08/31 01:25:36;;;;;;;12.15;6.75;;;;;;;19.53;92.75;98604.59;5078077;28;20027;-68
2022/08/31 01:28:04;;;;;;;12.27;7.38;;;;;;;19.48;92.89;98608.44;5085932;28;20028;-68
2022/08/31 01:30:30;;;;;;;15.82;8.73;;;;;;;19.42;93.40;98609.66;5085816;28;20216;-68
2022/08/31 01:32:55;;;;;;;15.30;7.95;;;;;;;19.35;93.89;98608.28;5085682;28;20027;-68
2022/08/31 01:35:20;;;;;;;15.35;8.18;;;;;;;19.28;94.68;98614.91;5085891;28;20055;-68
2022/08/31 01:37:46;;;;;;;14.20;7.70;;;;;;;19.18;95.29;98611.81;5085745;28;20373;-68
2022/08/31 01:40:12;;;;;;;15.65;7.45;;;;;;;19.19;95.82;98618.03;5085674;28;20035;-68
2022/08/31 01:42:37;;;;;;;13.13;7.07;;;;;;;19.21;95.31;98616.16;5085725;28;20020;-68
2022/08/31 01:45:04;;;;;;;16.63;8.00;;;;;;;19.20;94.08;98614.41;5085455;28;20216;-68
2022/08/31 01:47:30;;;;;;;13.40;6.78;;;;;;;19.25;94.46;98612.34;5085488;28;20028;-68
2022/08/31 01:49:55;;;;;;;10.70;6.75;;;;;;;19.30;92.48;98617.47;5085484;28;20035;-68
2022/08/31 01:52:21;;;;;;;10.25;7.22;;;;;;;19.29;93.71;98624.63;5085309;28;20088;-68
2022/08/31 01:54:46;;;;;;;11.55;7.78;;;;;;;19.21;94.50;98618.81;5085486;28;20020;-68
2022/08/31 01:57:14;;;;;;;12.50;7.57;;;;;;;19.17;94.50;98620.78;5085272;28;20060;-68
2022/08/31 01:59:39;;;;;;;11.18;7.07;;;;;;;19.03;96.32;98612.66;5085329;28;20051;-68
2022/08/31 02:02:05;;;;;;;12.57;7.88;;;;;;;19.03;96.07;98611.78;5085186;28;20025;-68
2022/08/31 02:04:30;;;;;;;17.55;7.63;;;;;;;18.96;95.69;98605.06;5085051;28;20220;-68
2022/08/31 02:06:58;;;;;;;15.43;7.35;;;;;;;18.91;96.50;98596.44;5085213;28;20074;-68
2022/08/31 02:09:24;;;;;;;11.38;8.02;;;;;;;18.89;97.86;98593.00;5084904;28;20036;-68
2022/08/31 02:11:50;;;;;;;12.25;7.63;;;;;;;18.86;97.54;98598.50;5085286;28;20027;-68
2022/08/31 02:14:17;;;;;;;16.13;8.38;;;;;;;18.76;98.13;98598.09;5084962;28;20208;-68
2022/08/31 02:16:43;;;;;;;12.05;7.95;;;;;;;18.65;98.13;98607.63;5085258;28;20031;-68
2022/08/31 02:19:09;;;;;;;16.55;8.63;;;;;;;18.51;99.31;98607.47;5084930;28;20366;-68
2022/08/31 02:21:35;;;;;;;11.93;7.78;;;;;;;18.49;99.90;98614.69;5084223;28;20024;-68
2022/08/31 02:24:01;;;;;;;12.10;7.95;;;;;;;18.48;100.00;98615.63;5085141;28;20025;-68
2022/08/31 02:26:27;;;;;;;11.57;8.32;;;;;;;18.39;100.00;98613.44;5085095;28;20204;-68
2022/08/31 02:28:52;;;;;;;15.48;9.00;;;;;;;18.34;100.00;98602.97;5085027;28;20070;-68
2022/08/31 02:31:18;;;;;;;15.73;8.93;;;;;;;18.34;100.00;98599.44;5084988;28;20373;-68
2022/08/31 02:33:43;;;;;;;14.38;7.78;;;;;;;18.30;100.00;98603.19;5084907;28;20070;-68
2022/08/31 02:36:09;;;;;;;13.43;7.45;;;;;;;18.38;100.00;98601.06;5084703;28;20083;-68
2022/08/31 02:38:36;;;;;;;12.82;8.25;;;;;;;18.36;100.00;98600.22;5084553;28;20074;-68
2022/08/31 02:41:03;;;;;;;16.20;7.80;;;;;;;18.39;100.00;98613.44;5084650;28;20024;-68
2022/08/31 02:43:28;;;;;;;15.32;8.57;;;;;;;18.38;100.00;98606.38;5084794;28;20078;-68
2022/08/31 02:45:54;;;;;;;15.23;9.00;;;;;;;18.38;100.00;98601.91;5084890;28;20024;-68
2022/08/31 02:48:20;;;;;;;15.15;7.65;;;;;;;18.40;100.00;98607.16;5084525;28;20021;-68
2022/08/31 02:50:48;;;;;;;12.95;8.05;;;;;;;18.38;100.00;98607.22;5084596;28;20039;-68
2022/08/31 02:53:16;;;;;;;13.80;7.72;;;;;;;18.34;100.00;98616.28;5084568;28;20040;-68
2022/08/31 02:55:42;;;;;;;16.08;8.38;;;;;;;18.30;100.00;98620.06;5084526;28;20027;-68
2022/08/31 02:58:08;;;;;;;12.07;7.95;;;;;;;18.32;100.00;98625.31;5084509;28;20269;-68
2022/08/31 03:00:33;;;;;;;11.43;8.07;;;;;;;18.24;100.00;98616.81;5084132;28;20040;-68
2022/08/31 03:02:59;;;;;;;13.38;8.40;;;;;;;18.12;100.00;98625.41;5084257;28;20021;-68
2022/08/31 03:05:25;;;;;;;16.52;8.60;;;;;;;18.07;100.00;98614.16;5083947;28;20020;-68
2022/08/31 03:07:51;;;;;;;11.20;7.85;;;;;;;18.00;100.00;98612.72;5084042;28;20101;-68
2022/08/31 03:10:20;;;;;;;12.25;7.45;;;;;;;18.03;100.00;98615.25;5083771;28;20079;-68
2022/08/31 03:12:46;;;;;;;16.10;8.27;;;;;;;18.01;100.00;98611.78;5083117;28;20073;-68
2022/08/31 03:15:12;;;;;;;13.02;8.18;;;;;;;17.97;100.00;98615.53;5083972;28;20027;-68
2022/08/31 03:17:38;;;;;;;11.10;7.28;;;;;;;17.94;100.00;98621.03;5083860;28;20091;-68
2022/08/31 03:20:05;;;;;;;10.05;7.57;;;;;;;17.90;100.00;98619.41;5084037;28;20023;-68
2022/08/31 03:22:31;;;;;;;10.27;7.20;;;;;;;17.82;100.00;98610.97;5083894;28;20034;-68
2022/08/31 03:24:57;;;;;;;13.20;8.48;;;;;;;17.74;100.00;98613.13;5075754;28;20088;-68
2022/08/31 03:27:23;;;;;;;19.55;8.45;;;;;;;17.70;100.00;98616.88;5084076;28;20036;-68
2022/08/31 03:29:50;;;;;;;13.18;8.75;;;;;;;17.67;100.00;98617.88;5083646;28;20051;-68
2022/08/31 03:32:16;;;;;;;13.50;8.57;;;;;;;17.63;100.00;98612.78;5083334;28;20028;-68
2022/08/31 03:34:42;;;;;;;12.20;8.55;;;;;;;17.61;100.00;98617.31;5082978;28;20269;-68
2022/08/31 03:37:07;;;;;;;14.63;8.75;;;;;;;17.64;100.00;98622.47;5083687;28;20047;-68
2022/08/31 03:39:32;;;;;;;15.52;9.10;;;;;;;17.65;100.00;98613.59;5083552;28;20092;-68
2022/08/31 03:41:58;;;;;;;16.00;8.07;;;;;;;17.65;100.00;98624.22;5083566;28;20066;-68
2022/08/31 03:44:23;;;;;;;11.73;7.60;;;;;;;17.60;100.00;98620.91;5083625;28;20024;-68
2022/08/31 03:46:49;;;;;;;13.68;7.57;;;;;;;17.54;100.00;98619.41;5083837;28;20042;-68
2022/08/31 03:49:17;;;;;;;14.95;8.60;;;;;;;17.59;100.00;98621.84;5083442;28;20276;-68
2022/08/31 03:51:43;;;;;;;15.55;8.48;;;;;;;17.64;100.00;98638.44;5083734;28;20021;-68
2022/08/31 03:54:08;;;;;;;13.20;8.60;;;;;;;17.63;100.00;98626.09;5083322;28;20087;-68
2022/08/31 03:56:34;;;;;;;13.88;8.38;;;;;;;17.56;100.00;98619.34;5083827;28;20036;-68
2022/08/31 03:58:59;;;;;;;15.07;9.52;;;;;;;17.57;100.00;98626.38;5083352;28;20044;-68
2022/08/31 04:01:24;;;;;;;10.77;7.50;;;;;;;17.48;100.00;98629.47;5083431;28;20314;-68
2022/08/31 04:03:50;;;;;;;12.65;8.25;;;;;;;17.49;100.00;98639.19;5083785;28;20071;-68
2022/08/31 04:06:15;;;;;;;12.48;8.25;;;;;;;17.51;100.00;98632.84;5083716;28;20024;-68
2022/08/31 04:08:40;;;;;;;13.35;8.45;;;;;;;17.43;100.00;98634.16;5083097;28;20025;-68
2022/08/31 04:11:13;;;;;;;13.05;8.10;;;;;;;17.37;100.00;98637.06;5083376;28;20055;-68
2022/08/31 04:13:39;;;;;;;11.85;8.45;;;;;;;17.35;100.00;98641.59;5083250;28;20274;-68
2022/08/31 04:16:10;;;;;;;13.23;8.73;;;;;;;17.35;100.00;98641.59;5083372;28;20334;-68
2022/08/31 04:18:37;;;;;;;15.80;8.70;;;;;;;17.30;100.00;98638.28;5083173;28;20050;-67
2022/08/31 04:21:04;;;;;;;10.93;7.82;;;;;;;17.36;100.00;98641.50;5083263;28;20047;-67
2022/08/31 04:23:30;;;;;;;17.50;8.88;;;;;;;17.37;100.00;98639.72;5083347;28;20028;-67
2022/08/31 04:25:57;;;;;;;13.80;8.43;;;;;;;17.35;100.00;98641.59;5082990;28;20031;-68
2022/08/31 04:28:23;;;;;;;18.23;8.50;;;;;;;17.31;100.00;98645.31;5083198;28;20393;-68
2022/08/31 04:30:48;;;;;;;13.05;8.05;;;;;;;17.35;100.00;98647.78;5083463;28;20092;-68
2022/08/31 04:33:15;;;;;;;15.40;9.18;;;;;;;17.32;100.00;98636.41;5082242;28;20212;-68
2022/08/31 04:35:41;;;;;;;12.75;8.60;;;;;;;17.21;100.00;98645.75;5082935;28;20028;-67
2022/08/31 04:38:07;;;;;;;15.77;9.07;;;;;;;17.13;100.00;98647.91;5083409;28;20021;-67
2022/08/31 04:40:32;;;;;;;15.55;9.02;;;;;;;17.15;100.00;98646.03;5083656;28;20023;-67
2022/08/31 04:42:58;;;;;;;12.25;8.23;;;;;;;17.17;100.00;98648.59;5083357;28;20278;-67
2022/08/31 04:45:24;;;;;;;16.40;8.88;;;;;;;17.22;100.00;98644.81;5085696;28;20024;-67
2022/08/31 04:47:50;;;;;;;12.18;8.93;;;;;;;17.24;100.00;98656.25;5087041;28;20027;-67
2022/08/31 04:50:15;;;;;;;12.10;8.40;;;;;;;17.27;100.00;98660.56;5087080;28;20028;-67
2022/08/31 04:52:42;;;;;;;12.85;8.95;;;;;;;17.23;100.00;98665.16;5086833;28;20051;-67
2022/08/31 04:55:09;;;;;;;13.38;8.35;;;;;;;17.31;100.00;98666.59;5086879;28;20066;-67
2022/08/31 04:57:35;;;;;;;12.57;8.48;;;;;;;17.37;100.00;98671.66;5086884;28;20031;-67
2022/08/31 05:00:03;;;;;;;14.57;8.40;;;;;;;17.42;100.00;98665.19;5086736;28;20020;-67
2022/08/31 05:02:29;;;;;;;13.80;8.18;;;;;;;17.37;100.00;98671.66;5085606;28;20012;-67
2022/08/31 05:04:54;;;;;;;15.65;8.32;;;;;;;17.18;100.00;98672.47;5086653;28;20368;-67
2022/08/31 05:07:19;;;;;;;14.13;8.65;;;;;;;17.04;100.00;98669.59;5086728;28;20025;-67
2022/08/31 05:09:45;;;;;;;11.63;8.55;;;;;;;16.96;100.00;98677.03;5086591;28;20223;-67
2022/08/31 05:12:10;;;;;;;13.90;8.82;;;;;;;17.00;100.00;98673.28;5086553;28;20024;-67
2022/08/31 05:14:35;;;;;;;14.95;8.93;;;;;;;17.04;100.00;98671.38;5086506;28;20096;-67
2022/08/31 05:17:01;;;;;;;14.65;8.40;;;;;;;17.03;100.00;98689.09;5086496;28;20032;-67
2022/08/31 05:19:26;;;;;;;16.35;9.82;;;;;;;17.07;100.00;98685.41;5086513;28;20066;-67
2022/08/31 05:21:52;;;;;;;16.17;9.35;;;;;;;17.12;100.00;98685.22;5086460;28;20024;-67
2022/08/31 05:24:21;;;;;;;14.18;9.02;;;;;;;17.17;100.00;98685.84;5086384;28;20028;-67
2022/08/31 05:26:49;;;;;;;14.18;8.40;;;;;;;17.16;100.00;98685.00;5086352;28;20044;-67
2022/08/31 05:29:17;;;;;;;13.85;8.88;;;;;;;17.10;100.00;98687.06;5086373;28;20095;-67
2022/08/31 05:31:43;;;;;;;13.25;7.88;;;;;;;17.11;100.00;98689.66;5086121;28;20035;-67
2022/08/31 05:34:16;;;;;;;13.18;8.38;;;;;;;17.13;100.00;98695.78;5086188;28;20043;-67
2022/08/31 05:36:44;;;;;;;13.68;9.20;;;;;;;17.27;100.00;98702.28;5086075;28;20066;-67
2022/08/31 05:39:11;;;;;;;15.27;8.50;;;;;;;17.27;100.00;98698.66;5086093;28;20096;-67
2022/08/31 05:41:38;;;;;;;14.98;8.98;;;;;;;17.22;100.00;98705.97;5086024;28;20027;-67
2022/08/31 05:44:05;;;;;;;15.55;8.57;;;;;;;17.20;100.00;98702.53;5085987;28;20031;-67
2022/08/31 05:46:30;;;;;;;13.68;8.82;;;;;;;17.16;100.00;98706.28;5085964;28;20025;-67
2022/08/31 05:48:56;;;;;;;13.88;8.57;;;;;;;17.14;100.00;98702.81;5085871;28;20074;-67
2022/08/31 05:51:21;;;;;;;12.43;8.52;;;;;;;17.18;100.00;98712.38;5085793;28;20020;-67
2022/08/31 05:53:47;;;;;;;12.18;8.30;;;;;;;17.22;100.00;98716.63;5085839;28;20017;-67
2022/08/31 05:56:19;;;;;;;12.88;8.55;;;;;;;17.22;100.00;98713.97;5084908;28;20035;-67
2022/08/31 05:58:46;;;;;;;13.20;9.60;;;;;;;17.32;100.00;98724.19;5085658;28;20069;-67
2022/08/31 06:01:32;;;;;;;12.00;8.52;;;;;;;17.43;100.00;98724.63;5085562;28;20343;-67
2022/08/31 06:03:58;;;;;;;12.63;8.45;;;;;;;17.58;100.00;98724.78;5085575;28;20020;-67
2022/08/31 06:06:24;;;;;;;15.75;8.70;;;;;;;17.73;100.00;98717.88;5085566;28;20024;-67
2022/08/31 06:08:50;;;;;;;16.08;8.35;;;;;;;17.88;100.00;98723.34;5085347;28;20024;-67
2022/08/31 06:11:18;;;;;;;12.63;7.90;;;;;;;18.08;100.00;98715.28;5085453;28;20020;-67
2022/08/31 06:13:45;;;;;;;12.13;8.25;;;;;;;18.44;100.00;98726.84;5085488;28;20350;-67
2022/08/31 06:16:12;;;;;;;10.45;7.55;;;;;;;18.75;99.32;98718.19;5085335;28;20071;-67
2022/08/31 06:18:49;;;;;;;13.30;7.30;;;;;;;18.79;99.25;98725.06;5085209;28;20016;-67
2022/08/31 06:21:17;;;;;;;11.85;7.82;;;;;;;18.57;99.78;98713.81;5085266;28;20095;-67
2022/08/31 06:23:43;;;;;;;12.82;8.25;;;;;;;18.64;100.00;98720.53;5085156;28;20025;-67
2022/08/31 06:26:14;;;;;;;11.48;8.02;;;;;;;18.72;99.29;98713.00;5085134;28;20020;-67
2022/08/31 06:28:43;;;;;;;13.40;7.82;;;;;;;18.68;99.63;98724.78;5085156;28;20342;-68
2022/08/31 06:31:36;;;;;;;14.25;8.23;;;;;;;18.72;99.71;98723.66;5084981;28;20023;-68
2022/08/31 06:34:05;;;;;;;15.43;8.30;;;;;;;18.75;99.39;98724.38;5078939;28;20052;-68
2022/08/31 06:36:31;;;;;;;12.18;8.38;;;;;;;18.80;99.14;98721.50;5085191;28;20023;-68
2022/08/31 06:38:58;;;;;;;16.30;7.88;;;;;;;18.76;98.62;98726.09;5084923;28;20091;-68
2022/08/31 06:41:27;;;;;;;14.38;8.07;;;;;;;18.90;99.07;98728.94;5084849;28;20028;-68
2022/08/31 06:43:53;;;;;;;19.23;7.45;;;;;;;18.96;98.83;98727.78;5084766;28;20016;-68
2022/08/31 06:46:21;;;;;;;10.98;7.75;;;;;;;19.03;99.10;98734.50;5084841;28;20021;-68
2022/08/31 06:48:49;;;;;;;12.50;8.13;;;;;;;19.09;99.45;98734.19;5084773;28;20088;-68
2022/08/31 06:51:15;;;;;;;11.15;7.63;;;;;;;19.16;100.00;98738.25;5084564;28;20016;-68
2022/08/31 06:53:41;;;;;;;13.05;7.68;;;;;;;19.21;98.76;98738.91;5084630;28;20035;-68
2022/08/31 06:56:11;;;;;;;11.07;7.32;;;;;;;19.31;98.28;98745.50;5084832;28;20089;-68
2022/08/31 06:58:37;;;;;;;18.45;8.13;;;;;;;19.33;99.01;98743.59;5084542;28;20091;-68
2022/08/31 07:01:07;;;;;;;13.63;7.82;;;;;;;19.40;97.32;98745.03;5084426;28;20028;-68
2022/08/31 07:03:38;;;;;;;12.43;8.00;;;;;;;19.53;98.09;98739.88;5084655;28;20217;-68
2022/08/31 07:06:19;;;;;;;12.38;7.43;;;;;;;19.60;96.96;98743.94;5084454;28;20024;-68
2022/08/31 07:08:45;;;;;;;11.27;7.45;;;;;;;19.70;95.60;98740.72;5084089;28;20323;-68
2022/08/31 07:11:19;;;;;;;10.88;6.78;;;;;;;19.72;90.19;98730.81;5084359;28;20024;-68
2022/08/31 07:13:45;;;;;;;9.25;6.75;;;;;;;19.83;88.98;98733.75;5084284;28;20048;-68
2022/08/31 07:16:14;;;;;;;10.07;6.65;;;;;;;20.10;87.89;98742.94;5084303;28;20028;-68
2022/08/31 07:18:41;;;;;;;10.82;6.70;;;;;;;20.15;85.38;98743.53;5084234;28;20103;-68
2022/08/31 07:21:14;;;;;;;10.23;6.75;;;;;;;20.22;84.15;98742.25;5084259;28;20048;-68
2022/08/31 07:23:40;;;;;;;9.32;5.85;;;;;;;20.49;82.46;98750.53;5084177;28;20028;-68
2022/08/31 07:26:16;;;;;;;14.40;6.45;;;;;;;20.55;81.05;98740.34;5084130;28;20246;-68
2022/08/31 07:28:42;;;;;;;10.48;5.88;;;;;;;20.64;78.20;98745.16;5084103;28;20315;-68
2022/08/31 07:31:10;;;;;;;12.98;6.55;;;;;;;20.84;78.32;98744.88;5084107;28;20210;-68
2022/08/31 07:33:38;;;;;;;16.42;5.95;;;;;;;20.72;75.60;98742.91;5083946;28;20091;-68
2022/08/31 07:36:05;;;;;;;17.08;6.30;;;;;;;20.79;74.36;98741.59;5084061;28;20024;-68
2022/08/31 07:44:00;;;;;;;12.70;5.68;;;;;;;20.77;70.81;98745.31;5083977;28;20020;-68
2022/08/31 07:46:30;;;;;;;11.43;5.30;;;;;;;20.78;70.69;98745.22;5083954;28;20016;-68
2022/08/31 07:48:56;;;;;;;7.78;5.43;;;;;;;20.73;71.13;98757.16;5084181;28;20020;-68
2022/08/31 07:51:22;;;;;;;12.07;6.03;;;;;;;20.88;71.14;98757.09;5083826;28;20028;-68
2022/08/31 07:53:49;;;;;;;11.80;5.97;;;;;;;20.84;69.00;98758.25;5083872;28;20040;-68
2022/08/31 07:56:19;;;;;;;11.10;5.95;;;;;;;20.85;68.47;98759.97;5083856;28;20081;-68
2022/08/31 07:58:48;;;;;;;11.15;6.28;;;;;;;20.98;69.56;98757.47;5083801;28;20025;-68
2022/08/31 08:01:14;;;;;;;14.70;5.78;;;;;;;20.99;69.19;98768.09;5083737;28;20327;-68
2022/08/31 08:03:42;;;;;;;11.32;6.22;;;;;;;20.94;67.74;98762.13;5083777;28;20027;-68
2022/08/31 08:06:11;;;;;;;12.13;5.78;;;;;;;20.97;67.97;98759.28;5083761;28;20094;-68
2022/08/31 08:08:37;;;;;;;10.48;5.55;;;;;;;21.18;70.25;98768.72;5083760;28;20021;-68
2022/08/31 08:11:02;;;;;;;13.95;6.22;;;;;;;21.20;67.84;98765.94;5083530;28;20040;-68
2022/08/31 08:13:28;;;;;;;11.73;5.72;;;;;;;21.12;67.59;98769.09;5083663;28;20025;-68
2022/08/31 08:15:54;;;;;;;10.77;5.80;;;;;;;21.29;66.75;98782.31;5083675;28;20024;-68
2022/08/31 08:18:20;;;;;;;10.70;5.57;;;;;;;21.23;66.28;98777.31;5083899;28;20043;-68
2022/08/31 08:20:46;;;;;;;13.50;5.95;;;;;;;21.61;68.17;98787.53;5087058;28;20024;-68
2022/08/31 08:23:14;;;;;;;17.40;6.00;;;;;;;21.60;65.18;98780.44;5087462;28;20021;-68
2022/08/31 08:25:41;;;;;;;11.82;5.97;;;;;;;21.83;66.63;98777.25;5087453;28;20091;-68
2022/08/31 08:28:06;;;;;;;13.95;5.72;;;;;;;21.93;64.19;98784.63;5087459;28;20040;-68
2022/08/31 08:30:32;;;;;;;13.88;5.80;;;;;;;21.89;64.68;98771.53;5087419;28;20031;-68
2022/08/31 08:33:03;;;;;;;9.88;5.38;;;;;;;21.95;64.47;98765.75;5087252;28;20016;-68
2022/08/31 08:35:30;;;;;;;20.60;6.82;;;;;;;21.84;63.32;98773.59;5087263;28;20025;-68
2022/08/31 08:37:56;;;;;;;11.68;5.93;;;;;;;21.75;64.34;98774.19;5087228;28;20102;-68
2022/08/31 08:40:41;;;;;;;18.00;5.80;;;;;;;21.61;64.80;98761.59;5087144;28;20048;-68
2022/08/31 08:43:10;;;;;;;13.40;5.38;;;;;;;21.50;64.91;98771.25;5087418;28;20020;-68
2022/08/31 08:45:36;;;;;;;17.02;5.78;;;;;;;21.49;64.38;98764.19;5087132;28;20024;-68
2022/08/31 08:48:08;;;;;;;13.35;6.03;;;;;;;21.74;66.09;98778.69;5087061;28;20101;-68
2022/08/31 08:50:35;;;;;;;15.35;6.05;;;;;;;21.71;65.05;98777.97;5086984;28;20031;-68
2022/08/31 08:53:04;;;;;;;17.90;6.05;;;;;;;21.67;65.94;98776.44;5086884;28;20032;-68
2022/08/31 08:55:35;;;;;;;15.73;6.30;;;;;;;21.77;65.34;98783.00;5086915;28;20024;-68
2022/08/31 08:58:04;;;;;;;11.00;5.95;;;;;;;21.68;64.94;98783.53;5086926;28;20024;-68
2022/08/31 09:00:32;;;;;;;15.60;5.68;;;;;;;21.67;67.25;98797.88;5086751;28;20090;-68
2022/08/31 09:03:06;;;;;;;12.57;5.93;;;;;;;21.71;67.29;98796.72;5087031;28;20025;-68
2022/08/31 09:05:38;;;;;;;13.77;5.95;;;;;;;21.79;66.83;98791.78;5086985;28;20020;-68
2022/08/31 09:08:22;;;;;;;13.25;5.97;;;;;;;21.72;65.41;98795.75;5086696;28;20031;-68
2022/08/31 09:11:16;;;;;;;9.80;5.60;;;;;;;21.64;65.17;98796.22;5086500;28;20036;-68
2022/08/31 09:14:05;;;;;;;11.25;5.55;;;;;;;21.75;66.75;98806.34;5086812;28;20211;-68
2022/08/31 09:16:46;;;;;;;8.68;5.32;;;;;;;21.70;65.58;98800.38;5086792;28;20311;-68
2022/08/31 09:19:17;;;;;;;13.88;6.05;;;;;;;21.76;65.49;98805.41;5086484;28;20118;-68
2022/08/31 09:21:56;;;;;;;9.82;5.78;;;;;;;21.66;66.35;98796.13;5086637;28;20070;-68
2022/08/31 09:24:29;;;;;;;13.27;6.05;;;;;;;21.79;65.87;98791.78;5086672;28;20027;-68
2022/08/31 09:27:39;;;;;;;11.30;5.97;;;;;;;21.76;65.77;98797.34;5086421;28;20055;-68
2022/08/31 09:29:58;;;;;;;;;;;;;;;21.75;65.76;98795.63;5083514;28;20029;-68
2022/08/31 09:32:25;;;;;;;11.13;6.45;;;;;;;21.78;66.34;98804.34;5086206;28;19908;-68
2022/08/31 09:35:00;;;;;;;14.45;5.68;;;;;;;21.86;64.61;98798.50;5086177;28;20024;-68
2022/08/31 09:37:56;;;;;;;12.75;6.32;;;;;;;22.06;65.27;98799.00;5086394;28;20020;-68
2022/08/31 09:40:37;;;;;;;13.38;5.78;;;;;;;22.25;65.41;98799.56;5086088;28;20020;-68
2022/08/31 09:43:05;;;;;;;12.57;6.05;;;;;;;22.21;63.81;98799.84;5086067;28;20048;-68
2022/08/31 09:45:34;;;;;;;20.48;6.40;;;;;;;22.24;65.34;98796.97;5086237;28;20366;-68
2022/08/31 09:48:00;;;;;;;13.00;5.35;;;;;;;22.52;63.87;98802.28;5085935;28;20048;-68
2022/08/31 09:50:26;;;;;;;25.60;6.30;;;;;;;22.59;62.53;98798.28;5085968;28;20036;-68
2022/08/31 09:56:12;;;;;;;16.05;6.43;;;;;;;22.73;62.92;98793.72;5085813;28;20103;-68
2022/08/31 09:58:40;;;;;;;18.85;6.57;;;;;;;22.93;63.09;98800.44;5085734;28;20320;-68
2022/08/31 10:01:13;;;;;;;12.35;6.00;;;;;;;23.07;61.76;98803.91;5085625;28;20031;-68
2022/08/31 10:03:44;;;;;;;15.68;6.28;;;;;;;23.14;62.18;98799.00;5085914;28;20122;-68
2022/08/31 10:06:38;;;;;;;18.92;5.68;;;;;;;22.99;60.95;98794.66;5085613;28;20035;-68
2022/08/31 10:09:11;;;;;;;14.80;6.63;;;;;;;22.75;61.77;98791.78;5085361;28;20254;-68
2022/08/31 10:11:38;;;;;;;16.80;5.97;;;;;;;22.63;61.43;98791.75;5085414;28;20024;-68
2022/08/31 10:14:14;;;;;;;14.05;6.10;;;;;;;22.96;62.22;98789.50;5085687;28;20051;-68
2022/08/31 10:16:51;;;;;;;11.93;6.22;;;;;;;23.05;60.63;98788.88;5085370;28;20040;-68
2022/08/31 10:19:31;;;;;;;15.27;6.28;;;;;;;23.06;60.32;98786.09;5085309;28;20044;-68
2022/08/31 10:22:09;;;;;;;12.45;6.18;;;;;;;23.32;60.65;98787.06;5085525;28;20322;-68
2022/08/31 10:24:47;;;;;;;14.65;5.85;;;;;;;23.28;59.78;98785.53;5085244;28;20070;-68
2022/08/31 10:27:37;;;;;;;18.67;5.88;;;;;;;23.26;58.20;98788.31;5085160;28;20063;-68
2022/08/31 10:30:23;;;;;;;10.60;6.20;;;;;;;23.23;58.63;98782.31;5085389;28;20319;-68
2022/08/31 10:32:48;;;;;;;12.45;6.68;;;;;;;23.45;57.87;98793.31;5084951;28;20024;-68
2022/08/31 10:35:48;;;;;;;13.05;6.22;;;;;;;23.90;57.96;98792.81;5085062;28;20092;-68
2022/08/31 10:38:36;;;;;;;10.55;5.85;;;;;;;24.24;57.92;98794.00;5083829;28;20087;-68
2022/08/31 10:41:22;;;;;;;16.30;6.47;;;;;;;24.11;55.85;98793.16;5084889;28;20054;-68
2022/08/31 10:44:04;;;;;;;11.45;5.85;;;;;;;24.21;55.38;98789.69;5084488;28;20020;-68
2022/08/31 10:46:33;;;;;;;14.80;6.43;;;;;;;24.15;54.95;98789.25;5084845;28;20080;-68
2022/08/31 10:49:00;;;;;;;17.73;6.05;;;;;;;24.43;55.48;98789.84;5084705;28;20055;-68
2022/08/31 10:51:45;;;;;;;12.13;6.25;;;;;;;24.38;54.82;98791.16;5084959;28;20020;-68
2022/08/31 10:54:32;;;;;;;13.75;6.40;;;;;;;24.55;54.96;98788.94;5084906;28;20040;-68
2022/08/31 10:57:15;;;;;;;15.15;6.43;;;;;;;24.81;54.06;98790.59;5084564;28;20091;-68
2022/08/31 11:03:24;;;;;;;14.95;7.20;;;;;;;24.67;54.49;98782.69;5084549;28;20409;-68
2022/08/31 11:06:28;;;;;;;14.05;6.65;;;;;;;24.83;55.46;98777.91;5084727;28;20024;-68
2022/08/31 11:09:18;;;;;;;17.50;8.05;;;;;;;24.76;54.88;98787.41;5053335;28;20028;-68
2022/08/31 11:12:22;;;;;;;19.40;7.63;;;;;;;24.15;55.45;98773.13;5076544;28;20044;-68
2022/08/31 11:15:08;;;;;;;18.92;7.45;;;;;;;24.18;55.99;98773.78;5022965;28;20325;-68
2022/08/31 11:17:58;;;;;;;16.63;8.43;;;;;;;24.39;55.87;98776.75;5022794;28;20041;-68
2022/08/31 11:20:55;;;;;;;15.68;8.32;;;;;;;24.59;55.87;98777.00;5022814;28;20052;-68
2022/08/31 11:23:29;;;;;;;16.75;8.40;;;;;;;24.34;56.21;98774.38;5000355;28;20037;-68
2022/08/31 11:26:27;;;;;;;16.98;8.35;;;;;;;24.50;56.18;98764.22;5022687;28;20154;-68
2022/08/31 11:28:58;;;;;;;13.13;7.80;;;;;;;24.24;56.22;98767.97;5022602;28;20033;-68
2022/08/31 11:31:29;;;;;;;16.15;7.32;;;;;;;24.12;56.31;98774.22;5022583;28;20030;-68
2022/08/31 11:34:08;;;;;;;20.77;7.80;;;;;;;24.06;56.33;98771.97;5022637;28;20249;-68
2022/08/31 11:36:42;;;;;;;17.23;7.47;;;;;;;24.31;55.80;98761.16;5022575;28;20320;-68
2022/08/31 11:39:07;;;;;;;15.98;7.10;;;;;;;24.40;55.63;98767.69;5022465;28;20021;-68
2022/08/31 11:41:45;;;;;;;16.23;7.32;;;;;;;24.47;55.06;98755.50;5022511;28;20038;-68
2022/08/31 11:44:30;;;;;;;13.98;7.63;;;;;;;24.58;55.52;98745.66;5022459;28;20057;-68
2022/08/31 11:47:29;;;;;;;16.63;7.25;;;;;;;24.32;55.75;98754.78;5022383;28;20037;-68
2022/08/31 11:50:04;;;;;;;13.93;7.50;;;;;;;24.59;55.80;98752.78;5078280;28;20036;-68
2022/08/31 11:52:42;;;;;;;13.23;6.95;;;;;;;24.40;55.55;98736.28;5083792;28;20020;-68